EmailTwitter


Observations de surface / France / LFMP (07747)

Régions: Québec | Canada | États-Unis | Europe | France | UK | Ailleurs
Station
Affichage
Infos & localisation pour LFMP (07747) | Aide pour décoder les METARs

Observations prises le 2019-12-16 à 03H00 UTC à PERPIGNAN/RIVESA, FR (LFMP)

Température: 9.0 Celsius

Point de rosée: 8.0 Celsius

Humidité relative: 93%

Vents: Sud-ouest à 11 km/h ou 6 noeuds.

Pression au niveau moyen de la mer: 100.90 kilopascals.

Visibilité horizontale: 4.35 milles terrestres ou 6.96 kilomètres.

Observation METAR:

LFMP 160300Z AUTO 24006KT 7000 NSC 09/08 Q1009 TEMPO 0600 FG VV///=